Time;durP1;ratioP1;P1;durP2;ratioP2;P2;SDS_P1;SDS_P2;PMS_P1;PMS_P2;Temp;Humidity;BMP_temperature;BMP_pressure;BME280_temperature;BME280_humidity;BME280_pressure;Samples;Min_cycle;Max_cycle;Signal;HPM_P1;HPM_P2
2021/09/05 00:01:07;;;;;;;;;;;15.60;99.90;;;;;;5156991;27;19933;-81
2021/09/05 00:03:34;;;;;;;;;;;15.60;99.90;;;;;;5160007;27;19923;-81
2021/09/05 00:06:00;;;;;;;;;;;15.60;99.90;;;;;;5159807;27;19927;-81
2021/09/05 00:08:27;;;;;;;;;;;15.60;99.90;;;;;;5159755;27;19933;-80
2021/09/05 00:10:54;;;;;;;;;;;15.60;99.90;;;;;;5159922;27;19933;-81
2021/09/05 00:13:22;;;;;;;;;;;15.50;99.90;;;;;;5159641;27;19923;-82
2021/09/05 00:15:49;;;;;;;;;;;15.50;99.90;;;;;;5159800;27;20361;-82
2021/09/05 00:18:16;;;;;;;;;;;15.50;99.90;;;;;;5159555;27;19934;-82
2021/09/05 00:20:43;;;;;;;;;;;15.50;99.90;;;;;;5159571;27;19938;-82
2021/09/05 00:23:11;;;;;;;;;;;15.40;99.90;;;;;;5159504;27;19962;-82
2021/09/05 00:25:38;;;;;;;;;;;15.40;99.90;;;;;;5159328;27;20351;-80
2021/09/05 00:28:05;;;;;;;;;;;15.40;99.90;;;;;;5159179;27;19930;-82
2021/09/05 00:30:33;;;;;;;;;;;15.30;99.90;;;;;;5159227;27;20351;-82
2021/09/05 00:33:02;;;;;;;;;;;15.30;99.90;;;;;;5159437;27;19927;-82
2021/09/05 00:35:28;;;;;;;;;;;15.30;99.90;;;;;;5159196;27;19930;-82
2021/09/05 00:37:55;;;;;;;;;;;15.30;99.90;;;;;;5159223;27;19923;-82
2021/09/05 00:40:22;;;;;;;;;;;15.30;99.90;;;;;;5159141;27;19927;-82
2021/09/05 00:42:49;;;;;;;;;;;15.20;99.90;;;;;;5159075;27;20246;-82
2021/09/05 00:45:16;;;;;;;;;;;15.20;99.90;;;;;;5158976;27;19923;-82
2021/09/05 00:47:44;;;;;;;;;;;15.20;99.90;;;;;;5159111;27;19927;-83
2021/09/05 00:50:12;;;;;;;;;;;15.20;99.90;;;;;;5159167;27;19923;-84
2021/09/05 00:52:39;;;;;;;;;;;15.20;99.90;;;;;;5158903;27;19923;-82
2021/09/05 00:55:06;;;;;;;;;;;15.20;99.90;;;;;;5158789;27;19923;-82
2021/09/05 00:57:33;;;;;;;;;;;15.20;99.90;;;;;;5158677;27;19934;-82
2021/09/05 01:00:00;;;;;;;;;;;15.20;99.90;;;;;;5158794;27;19931;-82
2021/09/05 01:02:27;;;;;;;;;;;15.20;99.90;;;;;;5158809;27;19923;-82
2021/09/05 01:04:55;;;;;;;;;;;15.20;99.90;;;;;;5158497;27;20342;-82
2021/09/05 01:07:22;;;;;;;;;;;15.20;99.90;;;;;;5158731;27;19922;-82
2021/09/05 01:09:49;;;;;;;;;;;15.20;99.90;;;;;;5158622;27;20255;-82
2021/09/05 01:12:15;;;;;;;;;;;15.20;99.90;;;;;;5158290;27;19923;-83
2021/09/05 01:14:42;;;;;;;;;;;15.20;99.90;;;;;;5158582;27;19923;-80
2021/09/05 01:17:10;;;;;;;;;;;15.20;99.90;;;;;;5158582;27;19923;-82
2021/09/05 01:19:37;;;;;;;;;;;15.10;99.90;;;;;;5158654;27;19934;-86
2021/09/05 01:22:10;;;;;;;;;;;15.10;99.90;;;;;;5158449;27;19934;-82
2021/09/05 01:24:38;;;;;;;;;;;15.10;99.90;;;;;;5158241;27;19933;-82
2021/09/05 01:27:08;;;;;;;;;;;15.10;99.90;;;;;;5158072;27;19933;-81
2021/09/05 01:29:36;;;;;;;;;;;15.10;99.90;;;;;;5158114;27;19929;-82
2021/09/05 01:32:07;;;;;;;;;;;15.10;99.90;;;;;;5158045;27;19927;-82
2021/09/05 01:34:38;;;;;;;;;;;15.10;99.90;;;;;;5158079;27;19923;-82
2021/09/05 01:37:09;;;;;;;;;;;15.00;99.90;;;;;;5158032;27;19972;-81
2021/09/05 01:39:37;;;;;;;;;;;15.00;99.90;;;;;;5157794;27;19923;-81
2021/09/05 01:42:05;;;;;;;;;;;15.00;99.90;;;;;;5158154;27;20258;-80
2021/09/05 01:44:41;;;;;;;;;;;15.00;99.90;;;;;;5157943;27;19930;-81
2021/09/05 01:47:07;;;;;;;;;;;15.00;99.90;;;;;;5157821;27;20088;-81
2021/09/05 01:49:35;;;;;;;;;;;14.90;99.90;;;;;;5157763;27;19926;-81
2021/09/05 01:52:04;;;;;;;;;;;14.90;99.90;;;;;;5158010;27;19934;-73
2021/09/05 01:54:32;;;;;;;;;;;14.90;99.90;;;;;;5157884;27;19923;-85
2021/09/05 01:57:00;;;;;;;;;;;14.90;99.90;;;;;;5157697;27;19922;-79
2021/09/05 01:59:28;;;;;;;;;;;14.90;99.90;;;;;;5157784;27;19923;-82
2021/09/05 02:01:57;;;;;;;;;;;14.90;99.90;;;;;;5157447;27;20335;-83
2021/09/05 02:04:24;;;;;;;;;;;14.90;99.90;;;;;;5157754;27;19923;-82
2021/09/05 02:06:51;;;;;;;;;;;14.90;99.90;;;;;;5156995;27;20338;-82
2021/09/05 02:09:18;;;;;;;;;;;14.90;99.90;;;;;;5157500;27;19923;-82
2021/09/05 02:11:45;;;;;;;;;;;14.90;99.90;;;;;;5157035;27;19935;-83
2021/09/05 02:14:13;;;;;;;;;;;14.90;99.90;;;;;;5157345;27;20333;-83
2021/09/05 02:16:41;;;;;;;;;;;14.90;99.90;;;;;;5156913;27;19924;-82
2021/09/05 02:19:11;;;;;;;;;;;14.90;99.90;;;;;;5157217;27;19937;-83
2021/09/05 02:21:39;;;;;;;;;;;14.90;99.90;;;;;;5157204;27;19923;-83
2021/09/05 02:24:07;;;;;;;;;;;14.90;99.90;;;;;;5156514;27;19923;-82
2021/09/05 02:26:34;;;;;;;;;;;15.00;99.90;;;;;;5156588;27;20343;-82
2021/09/05 02:29:02;;;;;;;;;;;15.00;99.90;;;;;;5157151;27;19933;-83
2021/09/05 02:31:30;;;;;;;;;;;15.00;99.90;;;;;;5157076;27;20349;-83
2021/09/05 02:33:58;;;;;;;;;;;15.10;99.90;;;;;;5157520;27;19923;-83
2021/09/05 02:36:28;;;;;;;;;;;15.10;99.90;;;;;;5156985;27;19923;-84
2021/09/05 02:38:55;;;;;;;;;;;15.10;99.90;;;;;;5156834;27;19923;-83
2021/09/05 02:41:22;;;;;;;;;;;15.10;99.90;;;;;;5157060;27;19923;-82
2021/09/05 02:43:50;;;;;;;;;;;15.10;99.90;;;;;;5157176;27;19923;-83
2021/09/05 02:46:18;;;;;;;;;;;15.10;99.90;;;;;;5157152;27;19934;-82
2021/09/05 02:48:46;;;;;;;;;;;15.10;99.90;;;;;;5156694;27;19923;-83
2021/09/05 02:51:14;;;;;;;;;;;15.20;99.90;;;;;;5156851;27;19949;-83
2021/09/05 02:53:46;;;;;;;;;;;15.20;99.90;;;;;;5156824;27;19923;-83
2021/09/05 02:56:14;;;;;;;;;;;15.20;99.90;;;;;;5157161;27;19934;-83
2021/09/05 02:58:42;;;;;;;;;;;15.20;99.90;;;;;;5156976;27;19934;-83
2021/09/05 03:01:10;;;;;;;;;;;15.20;99.90;;;;;;5157007;27;19923;-83
2021/09/05 03:03:38;;;;;;;;;;;15.20;99.90;;;;;;5156673;27;20253;-83
2021/09/05 03:06:06;;;;;;;;;;;15.20;99.90;;;;;;5156782;27;19934;-83
2021/09/05 03:08:35;;;;;;;;;;;15.20;99.90;;;;;;5156609;27;19923;-83
2021/09/05 03:11:05;;;;;;;;;;;15.20;99.90;;;;;;5156529;27;19933;-83
2021/09/05 03:13:33;;;;;;;;;;;15.20;99.90;;;;;;5154052;27;20444;-83
2021/09/05 03:16:01;;;;;;;;;;;15.20;99.90;;;;;;5156422;27;19927;-82
2021/09/05 03:18:31;;;;;;;;;;;15.20;99.90;;;;;;5156411;27;20346;-81
2021/09/05 03:21:00;;;;;;;;;;;15.20;99.90;;;;;;5156468;27;19924;-83
2021/09/05 03:23:28;;;;;;;;;;;15.10;99.90;;;;;;5156505;27;19930;-83
2021/09/05 03:25:58;;;;;;;;;;;15.10;99.90;;;;;;5156704;27;19934;-82
2021/09/05 03:28:30;;;;;;;;;;;15.10;99.90;;;;;;5155883;27;19934;-82
2021/09/05 03:30:58;;;;;;;;;;;15.10;99.90;;;;;;5156342;27;19934;-83
2021/09/05 03:33:28;;;;;;;;;;;15.10;99.90;;;;;;5156436;27;20278;-82
2021/09/05 03:35:55;;;;;;;;;;;15.10;99.90;;;;;;5159025;27;19934;-83
2021/09/05 03:38:23;;;;;;;;;;;15.10;99.90;;;;;;5160532;27;19923;-83
2021/09/05 03:40:51;;;;;;;;;;;15.10;99.90;;;;;;5160531;27;19929;-83
2021/09/05 03:43:19;;;;;;;;;;;15.10;99.90;;;;;;5160519;27;19933;-83
2021/09/05 03:45:53;;;;;;;;;;;15.10;99.90;;;;;;5160271;27;19923;-83
2021/09/05 03:48:23;;;;;;;;;;;15.10;99.90;;;;;;5160362;27;20250;-83
2021/09/05 03:50:51;;;;;;;;;;;15.10;99.90;;;;;;5160157;27;19927;-83
2021/09/05 03:53:18;;;;;;;;;;;15.10;99.90;;;;;;5160325;27;19933;-83
2021/09/05 03:55:46;;;;;;;;;;;15.10;99.90;;;;;;5159940;27;19923;-83
2021/09/05 03:58:15;;;;;;;;;;;15.10;99.90;;;;;;5160158;27;19929;-83
2021/09/05 04:00:44;;;;;;;;;;;15.10;99.90;;;;;;5160071;27;19931;-83
2021/09/05 04:03:13;;;;;;;;;;;15.10;99.90;;;;;;5159681;27;19933;-83
2021/09/05 04:05:41;;;;;;;;;;;15.10;99.90;;;;;;5159742;27;19923;-83
2021/09/05 04:08:15;;;;;;;;;;;15.00;99.90;;;;;;5159582;27;20338;-83
2021/09/05 04:10:43;;;;;;;;;;;15.00;99.90;;;;;;5159845;27;19951;-83
2021/09/05 04:13:11;;;;;;;;;;;15.00;99.90;;;;;;5159636;27;20362;-82
2021/09/05 04:15:42;;;;;;;;;;;15.10;99.90;;;;;;5159564;27;19923;-84
2021/09/05 04:18:13;;;;;;;;;;;15.10;99.90;;;;;;5159492;27;19931;-83
2021/09/05 04:20:41;;;;;;;;;;;15.10;99.90;;;;;;5159640;27;20047;-83
2021/09/05 04:23:09;;;;;;;;;;;15.10;99.90;;;;;;5159548;27;19923;-83
2021/09/05 04:25:37;;;;;;;;;;;15.10;99.90;;;;;;5159519;27;19934;-83
2021/09/05 04:28:06;;;;;;;;;;;15.10;99.90;;;;;;5159505;27;20476;-83
2021/09/05 04:30:34;;;;;;;;;;;15.10;99.90;;;;;;5159516;27;19927;-83
2021/09/05 04:33:02;;;;;;;;;;;15.00;99.90;;;;;;5159574;27;19934;-83
2021/09/05 04:35:29;;;;;;;;;;;15.00;99.90;;;;;;5159188;27;19923;-83
2021/09/05 04:37:57;;;;;;;;;;;15.00;99.90;;;;;;5159278;27;19923;-83
2021/09/05 04:40:24;;;;;;;;;;;15.00;99.90;;;;;;5158727;27;20358;-82
2021/09/05 04:42:51;;;;;;;;;;;14.90;99.90;;;;;;5158967;27;19923;-83
2021/09/05 04:45:18;;;;;;;;;;;14.90;99.90;;;;;;5158974;27;19933;-83
2021/09/05 04:47:45;;;;;;;;;;;14.90;99.90;;;;;;5157575;27;19927;-83
2021/09/05 04:50:12;;;;;;;;;;;14.90;99.90;;;;;;5159062;27;20373;-83
2021/09/05 04:52:38;;;;;;;;;;;14.80;99.90;;;;;;5159005;27;19933;-83
2021/09/05 04:55:07;;;;;;;;;;;14.80;99.90;;;;;;5158836;27;19934;-83
2021/09/05 04:57:34;;;;;;;;;;;14.80;99.90;;;;;;5158755;27;19923;-83
2021/09/05 05:00:01;;;;;;;;;;;14.80;99.90;;;;;;5159001;27;20250;-77
2021/09/05 05:02:28;;;;;;;;;;;14.70;99.90;;;;;;5158758;27;19934;-83
2021/09/05 05:04:54;;;;;;;;;;;14.80;99.90;;;;;;5158660;27;19938;-83
2021/09/05 05:07:21;;;;;;;;;;;14.70;99.90;;;;;;5158683;27;19923;-83
2021/09/05 05:09:50;;;;;;;;;;;14.70;99.90;;;;;;5158575;27;19923;-84
2021/09/05 05:12:18;;;;;;;;;;;14.70;99.90;;;;;;5158484;27;19923;-83
2021/09/05 05:14:45;;;;;;;;;;;14.70;99.90;;;;;;5158674;27;19923;-82
2021/09/05 05:17:12;;;;;;;;;;;14.70;99.90;;;;;;5158325;27;19934;-83
2021/09/05 05:19:39;;;;;;;;;;;14.60;99.90;;;;;;5158554;27;19929;-83
2021/09/05 05:22:06;;;;;;;;;;;14.60;99.90;;;;;;5158543;27;19923;-83
2021/09/05 05:24:33;;;;;;;;;;;14.60;99.90;;;;;;5158377;27;20013;-83
2021/09/05 05:26:59;;;;;;;;;;;14.50;99.90;;;;;;5157918;27;19931;-83
2021/09/05 05:29:28;;;;;;;;;;;14.50;99.90;;;;;;5158482;27;19934;-83
2021/09/05 05:31:55;;;;;;;;;;;14.50;99.90;;;;;;5158240;27;20354;-83
2021/09/05 05:34:21;;;;;;;;;;;14.50;99.90;;;;;;5158426;27;19923;-83
2021/09/05 05:36:48;;;;;;;;;;;14.50;99.90;;;;;;5158195;27;19923;-83
2021/09/05 05:39:15;;;;;;;;;;;14.50;99.90;;;;;;5158116;27;19931;-83
2021/09/05 05:41:42;;;;;;;;;;;14.50;99.90;;;;;;5157856;27;19953;-83
2021/09/05 05:44:09;;;;;;;;;;;14.50;99.90;;;;;;5157901;27;20343;-84
2021/09/05 05:46:37;;;;;;;;;;;14.40;99.90;;;;;;5157907;27;19923;-83
2021/09/05 05:49:04;;;;;;;;;;;14.40;99.90;;;;;;5157779;27;19923;-83
2021/09/05 05:51:30;;;;;;;;;;;14.30;99.90;;;;;;5157821;27;20247;-83
2021/09/05 05:53:59;;;;;;;;;;;14.30;99.90;;;;;;5157610;27;19933;-83
2021/09/05 05:56:27;;;;;;;;;;;14.30;99.90;;;;;;5157874;27;19923;-83
2021/09/05 05:58:55;;;;;;;;;;;14.30;99.90;;;;;;5156781;27;19922;-84
2021/09/05 06:01:24;;;;;;;;;;;14.30;99.90;;;;;;5157758;27;19923;-84
2021/09/05 06:03:52;;;;;;;;;;;14.30;99.90;;;;;;5157605;27;19962;-83
2021/09/05 06:06:20;;;;;;;;;;;14.30;99.90;;;;;;5157483;27;19929;-83
2021/09/05 06:08:47;;;;;;;;;;;14.30;99.90;;;;;;5157291;27;19934;-84
2021/09/05 06:11:14;;;;;;;;;;;14.30;99.90;;;;;;5156492;27;19927;-83
2021/09/05 06:13:41;;;;;;;;;;;14.30;99.90;;;;;;5157451;27;19923;-84
2021/09/05 06:16:08;;;;;;;;;;;14.40;99.90;;;;;;5157240;27;20275;-83
2021/09/05 06:18:35;;;;;;;;;;;14.40;99.90;;;;;;5157212;27;19927;-84
2021/09/05 06:21:03;;;;;;;;;;;14.40;99.90;;;;;;5156388;27;19991;-83
2021/09/05 06:23:30;;;;;;;;;;;14.40;99.90;;;;;;5157172;27;19934;-83
2021/09/05 06:25:56;;;;;;;;;;;14.50;99.90;;;;;;5157622;27;19935;-84
2021/09/05 06:28:23;;;;;;;;;;;14.50;99.90;;;;;;5156928;27;19934;-84
2021/09/05 06:30:50;;;;;;;;;;;14.50;99.90;;;;;;5157443;27;20240;-83
2021/09/05 06:33:17;;;;;;;;;;;14.50;99.90;;;;;;5157067;27;20365;-84
2021/09/05 06:35:44;;;;;;;;;;;14.60;99.90;;;;;;5156974;27;19927;-83
2021/09/05 06:38:12;;;;;;;;;;;14.60;99.90;;;;;;5156927;27;19923;-83
2021/09/05 06:40:39;;;;;;;;;;;14.60;99.90;;;;;;5156901;27;20342;-83
2021/09/05 06:43:06;;;;;;;;;;;14.70;99.90;;;;;;5156903;27;20346;-83
2021/09/05 06:45:37;;;;;;;;;;;14.70;99.90;;;;;;5156989;27;19923;-82
2021/09/05 06:48:05;;;;;;;;;;;14.80;99.90;;;;;;5156916;27;19934;-82
2021/09/05 06:50:36;;;;;;;;;;;14.80;99.90;;;;;;5156825;27;19935;-83
2021/09/05 06:53:04;;;;;;;;;;;14.80;99.90;;;;;;5156736;27;20267;-82
2021/09/05 06:55:34;;;;;;;;;;;14.90;99.90;;;;;;5157120;27;19934;-82
2021/09/05 06:58:02;;;;;;;;;;;14.90;99.90;;;;;;5156767;27;19927;-83
2021/09/05 07:00:30;;;;;;;;;;;15.00;99.90;;;;;;5156926;27;19923;-83
2021/09/05 07:02:58;;;;;;;;;;;15.00;99.90;;;;;;5156645;27;19922;-83
2021/09/05 07:05:26;;;;;;;;;;;15.00;99.90;;;;;;5156916;27;19923;-83
2021/09/05 07:07:53;;;;;;;;;;;15.10;99.90;;;;;;5156582;27;20331;-82
2021/09/05 07:10:21;;;;;;;;;;;15.10;99.90;;;;;;5157932;27;19923;-82
2021/09/05 07:12:49;;;;;;;;;;;15.20;99.90;;;;;;5160524;27;19923;-83
2021/09/05 07:15:16;;;;;;;;;;;15.30;99.90;;;;;;5161191;27;20243;-83
2021/09/05 07:17:43;;;;;;;;;;;15.40;99.90;;;;;;5160334;27;19927;-83
2021/09/05 07:20:10;;;;;;;;;;;16.30;99.90;;;;;;5160692;27;19923;-84
2021/09/05 07:22:37;;;;;;;;;;;17.80;99.90;;;;;;5160944;27;20266;-83
2021/09/05 07:25:04;;;;;;;;;;;19.70;99.90;;;;;;5160644;27;20346;-84
2021/09/05 07:27:32;;;;;;;6.78;3.58;;;21.50;99.90;;;;;;5159656;27;20743;-85
2021/09/05 07:30:00;;;;;;;5.28;3.20;;;22.90;99.90;;;;;;5160039;27;20147;-85
2021/09/05 07:32:27;;;;;;;7.68;3.03;;;24.10;99.90;;;;;;5160466;27;20096;-84
2021/09/05 07:34:54;;;;;;;6.38;3.95;;;24.60;99.90;;;;;;5159980;27;20047;-84
2021/09/05 07:37:21;;;;;;;6.38;3.20;;;23.90;99.90;;;;;;5159992;27;20053;-84
2021/09/05 07:39:48;;;;;;;;;;;22.80;99.90;;;;;;5160421;27;20359;-83
2021/09/05 07:42:15;;;;;;;;;;;21.60;99.90;;;;;;5160290;27;19919;-83
2021/09/05 07:44:42;;;;;;;;;;;20.70;99.90;;;;;;5160519;27;19919;-83
2021/09/05 07:47:10;;;;;;;;;;;20.00;99.90;;;;;;5160475;27;19919;-83
2021/09/05 07:49:37;;;;;;;;;;;19.30;99.90;;;;;;5160208;27;19933;-82
2021/09/05 07:52:04;;;;;;;;;;;18.80;99.90;;;;;;5160067;27;19919;-83
2021/09/05 07:54:31;;;;;;;;;;;18.40;99.90;;;;;;5160211;27;19919;-83
2021/09/05 07:56:58;;;;;;;;;;;18.10;99.90;;;;;;5160056;27;20285;-83
2021/09/05 07:59:24;;;;;;;;;;;17.90;99.90;;;;;;5159959;27;20346;-83
2021/09/05 08:01:51;;;;;;;;;;;17.70;99.90;;;;;;5160002;27;19930;-83
2021/09/05 08:04:19;;;;;;;;;;;17.60;99.90;;;;;;5159907;27;19919;-83
2021/09/05 08:06:46;;;;;;;;;;;17.50;99.90;;;;;;5159966;27;19923;-83
2021/09/05 08:09:13;;;;;;;;;;;17.40;99.90;;;;;;5159655;27;20285;-83
2021/09/05 08:11:40;;;;;;;;;;;17.40;99.90;;;;;;5159808;27;19919;-83
2021/09/05 08:14:07;;;;;;;;;;;17.30;99.90;;;;;;5159706;27;19918;-83
2021/09/05 08:16:36;;;;;;;;;;;17.30;99.90;;;;;;5159998;27;19929;-83
2021/09/05 08:19:03;;;;;;;;;;;17.40;99.90;;;;;;5159591;27;20327;-83
2021/09/05 08:21:31;;;;;;;;;;;17.40;99.90;;;;;;5158935;27;19919;-83
2021/09/05 08:23:58;;;;;;;;;;;17.40;99.90;;;;;;5159413;27;19919;-83
2021/09/05 08:26:25;;;;;;;;;;;17.40;99.90;;;;;;5159631;27;20355;-84
2021/09/05 08:28:52;;;;;;;;;;;17.40;99.90;;;;;;5159420;27;19919;-83
2021/09/05 08:31:18;;;;;;;;;;;17.30;99.90;;;;;;5159455;27;19919;-83
2021/09/05 08:33:45;;;;;;;;;;;17.30;99.90;;;;;;5159434;27;19919;-84
2021/09/05 08:36:12;;;;;;;;;;;17.30;99.90;;;;;;5159733;27;20266;-83
2021/09/05 08:38:40;;;;;;;;;;;17.30;99.90;;;;;;5159533;27;20335;-83
2021/09/05 08:41:07;;;;;;;;;;;17.30;99.90;;;;;;5159264;27;19923;-83
2021/09/05 08:43:35;;;;;;;;;;;17.30;99.90;;;;;;5159420;27;19945;-83
2021/09/05 08:46:02;;;;;;;;;;;17.30;99.90;;;;;;5159028;27;19919;-83
2021/09/05 08:48:28;;;;;;;;;;;17.30;99.90;;;;;;5159359;27;19919;-84
2021/09/05 08:50:55;;;;;;;;;;;17.30;99.90;;;;;;5159050;27;19930;-83
2021/09/05 08:53:22;;;;;;;;;;;17.40;99.90;;;;;;5159090;27;19919;-83
2021/09/05 08:55:50;;;;;;;;;;;17.40;99.90;;;;;;5158977;27;19919;-84
2021/09/05 08:58:17;;;;;;;;;;;17.40;99.90;;;;;;5159068;27;19930;-83
2021/09/05 09:00:44;;;;;;;;;;;17.40;99.90;;;;;;5159046;27;19927;-83
2021/09/05 09:03:13;;;;;;;;;;;17.50;99.90;;;;;;5158810;27;20361;-83
2021/09/05 09:05:40;;;;;;;;;;;17.50;99.90;;;;;;5158714;27;19929;-83
2021/09/05 09:08:07;;;;;;;;;;;17.40;99.90;;;;;;5158718;27;19923;-83
2021/09/05 09:10:34;;;;;;;;;;;17.50;99.90;;;;;;5158645;27;19918;-83
2021/09/05 09:13:02;;;;;;;;;;;17.50;99.90;;;;;;5158508;27;20345;-84
2021/09/05 09:15:30;;;;;;;;;;;17.50;99.90;;;;;;5158669;27;19926;-84
2021/09/05 09:17:58;;;;;;;;;;;17.60;99.90;;;;;;5158362;27;19918;-84
2021/09/05 09:20:35;;;;;;;;;;;17.60;99.90;;;;;;5158364;27;19919;-84
2021/09/05 09:23:06;;;;;;;;;;;17.60;99.90;;;;;;5158248;27;19918;-84
2021/09/05 09:25:33;;;;;;;;;;;17.70;99.90;;;;;;5158476;27;19930;-84
2021/09/05 09:27:59;;;;;;;;;;;17.70;99.90;;;;;;5158358;27;19966;-83
2021/09/05 09:30:35;;;;;;;;;;;17.80;99.90;;;;;;5158287;27;20342;-83
2021/09/05 09:33:02;;;;;;;;;;;17.80;99.90;;;;;;5158254;27;19919;-83
2021/09/05 09:35:32;;;;;;;;;;;17.80;99.90;;;;;;5158288;27;19919;-84
2021/09/05 09:38:01;;;;;;;;;;;17.90;99.90;;;;;;5158222;27;19919;-84
2021/09/05 09:40:29;;;;;;;;;;;17.90;99.90;;;;;;5157628;27;20199;-84
2021/09/05 09:42:57;;;;;;;;;;;18.00;99.90;;;;;;5158261;27;19923;-83
2021/09/05 09:45:25;;;;;;;;;;;18.00;99.90;;;;;;5157862;27;19956;-84
2021/09/05 09:47:53;;;;;;;;;;;18.10;99.90;;;;;;5157959;27;20355;-84
2021/09/05 09:50:22;;;;;;;;;;;18.20;99.90;;;;;;5157828;27;19923;-83
2021/09/05 09:52:49;;;;;;;;;;;18.20;99.90;;;;;;5157857;27;19927;-83
2021/09/05 09:55:15;;;;;;;;;;;18.20;99.90;;;;;;5157672;27;20335;-83
2021/09/05 09:57:42;;;;;;;;;;;18.30;99.90;;;;;;5157682;27;19923;-84
2021/09/05 10:00:09;;;;;;;;;;;18.30;99.90;;;;;;5157844;27;19934;-84
2021/09/05 10:02:38;;;;;;;;;;;18.30;99.90;;;;;;5158024;27;20347;-84
2021/09/05 10:05:07;;;;;;;;;;;18.30;99.90;;;;;;5157587;27;19933;-83
2021/09/05 10:07:34;;;;;;;;;;;18.30;99.90;;;;;;5157658;27;19933;-84
2021/09/05 10:10:03;;;;;;;;;;;18.40;99.90;;;;;;5157672;27;19923;-84
2021/09/05 10:12:29;;;;;;;;;;;18.40;99.90;;;;;;5157446;27;19923;-84
2021/09/05 10:14:56;;;;;;;;;;;18.40;99.90;;;;;;5157595;27;20285;-84
2021/09/05 10:17:23;;;;;;;;;;;18.40;99.90;;;;;;5157151;27;20339;-84
2021/09/05 10:19:50;;;;;;;;;;;18.50;99.90;;;;;;5157312;27;20323;-84
2021/09/05 10:22:19;;;;;;;;;;;18.50;99.90;;;;;;5157625;27;19931;-84
2021/09/05 10:24:47;;;;;;;;;;;18.50;99.90;;;;;;5157577;27;19923;-84
2021/09/05 10:27:14;;;;;;;;;;;18.50;99.90;;;;;;5157069;27;19945;-84
2021/09/05 10:29:56;;;;;;;;;;;18.60;99.90;;;;;;5157109;27;19923;-85
2021/09/05 10:32:23;;;;;;;;;;;18.60;99.90;;;;;;5157370;27;19922;-84
2021/09/05 10:34:49;;;;;;;;;;;18.60;99.90;;;;;;5157346;27;19927;-84
2021/09/05 10:37:16;;;;;;;;;;;18.70;99.90;;;;;;5157345;27;20232;-85
2021/09/05 10:40:01;;;;;;;;;;;18.70;99.90;;;;;;5157096;27;19934;-85
2021/09/05 10:42:31;;;;;;;;;;;18.70;99.90;;;;;;5157000;27;20363;-85
2021/09/05 10:45:01;;;;;;;;;;;18.70;99.90;;;;;;5156497;27;20359;-85
2021/09/05 10:47:37;;;;;;;;;;;18.70;99.90;;;;;;5157128;27;20019;-85
2021/09/05 10:50:04;;;;;;;;;;;18.80;99.90;;;;;;5156910;27;19923;-85
2021/09/05 10:52:45;;;;;;;;;;;18.80;99.90;;;;;;5157073;27;19933;-82
2021/09/05 10:55:13;;;;;;;;;;;18.80;99.90;;;;;;5157037;27;19922;-85
2021/09/05 10:57:43;;;;;;;;;;;18.70;99.90;;;;;;5156751;27;19933;-85
2021/09/05 11:00:11;;;;;;;;;;;18.80;99.90;;;;;;5156598;27;19927;-84
2021/09/05 11:02:55;;;;;;;;;;;18.70;99.90;;;;;;5156822;27;19923;-85
2021/09/05 11:05:25;;;;;;;;;;;18.80;99.90;;;;;;5156377;27;20247;-84
2021/09/05 11:07:54;;;;;;;;;;;18.90;99.90;;;;;;5154477;27;20239;-84
2021/09/05 11:10:36;;;;;;;;;;;19.00;99.90;;;;;;5156803;27;20147;-84
2021/09/05 11:13:06;;;;;;;;;;;19.00;99.90;;;;;;5156563;27;19933;-85
2021/09/05 11:15:34;;;;;;;;;;;19.00;99.90;;;;;;5156561;27;20342;-85
2021/09/05 11:18:02;;;;;;;;;;;19.10;99.90;;;;;;5156688;27;19923;-85
2021/09/05 11:20:29;;;;;;;;;;;19.10;99.90;;;;;;5156542;27;19924;-85
2021/09/05 11:23:07;;;;;;;;;;;19.10;99.90;;;;;;5156613;27;19976;-85
2021/09/05 11:25:39;;;;;;;;;;;19.20;99.90;;;;;;5156768;27;20013;-85
2021/09/05 11:28:08;;;;;;;;;;;19.30;99.90;;;;;;5156630;27;19958;-84
2021/09/05 11:30:35;;;;;;;;;;;19.40;99.90;;;;;;5156449;27;20288;-86
2021/09/05 11:33:04;;;;;;;;;;;19.40;99.90;;;;;;5156473;27;20334;-86
2021/09/05 11:35:36;;;;;;;;;;;19.30;99.90;;;;;;5156633;27;19934;-85
2021/09/05 11:38:04;;;;;;;;;;;19.30;99.90;;;;;;5154472;27;19942;-87
2021/09/05 11:40:32;;;;;;;;;;;19.20;99.90;;;;;;5156219;27;19923;-79
2021/09/05 11:43:00;;;;;;;;;;;19.20;99.90;;;;;;5156466;27;19923;-77
2021/09/05 11:45:29;;;;;;;;;;;19.20;99.90;;;;;;5156664;27;19923;-79
2021/09/05 11:47:59;;;;;;;;;;;19.10;99.90;;;;;;5152596;27;19929;-81
2021/09/05 11:50:28;;;;;;;;;;;19.10;99.90;;;;;;5150907;27;19934;-76
2021/09/05 11:52:55;;;;;;;;;;;19.20;99.90;;;;;;5155558;27;19959;-78
2021/09/05 11:55:22;;;;;;;;;;;19.20;99.90;;;;;;5156410;27;19923;-77
2021/09/05 11:57:52;;;;;;;;;;;19.30;99.90;;;;;;5159825;27;19962;-79
2021/09/05 12:00:24;;;;;;;;;;;19.40;99.90;;;;;;5160309;27;19922;-78
2021/09/05 12:02:52;;;;;;;;;;;19.40;99.90;;;;;;5159965;27;19934;-77
2021/09/05 12:05:19;;;;;;;;;;;19.50;99.90;;;;;;5160069;27;19945;-78
2021/09/05 12:07:46;;;;;;;;;;;19.60;99.90;;;;;;5159848;27;20350;-77
2021/09/05 12:10:13;;;;;;;;;;;19.60;99.90;;;;;;5159776;27;19926;-77
2021/09/05 12:12:40;;;;;;;;;;;19.60;99.90;;;;;;5159839;27;19983;-77
2021/09/05 12:15:14;;;;;;;;;;;19.60;99.90;;;;;;5159854;27;20362;-77
2021/09/05 12:17:48;;;;;;;;;;;19.60;99.90;;;;;;5159585;27;19923;-77
2021/09/05 12:20:21;;;;;;;;;;;19.70;99.90;;;;;;5159569;27;19923;-76
2021/09/05 12:22:49;;;;;;;;;;;19.70;99.90;;;;;;5157359;27;20339;-76
2021/09/05 12:25:18;;;;;;;;;;;19.70;99.90;;;;;;5159522;27;20324;-76
2021/09/05 12:27:58;;;;;;;;;;;19.80;99.90;;;;;;5159361;27;19923;-76
2021/09/05 12:30:28;;;;;;;;;;;19.80;99.90;;;;;;5159333;27;19934;-76
2021/09/05 12:33:06;;;;;;;;;;;19.80;99.90;;;;;;5156664;27;20382;-77
2021/09/05 12:35:35;;;;;;;;;;;19.90;99.90;;;;;;5159301;27;19923;-76
2021/09/05 12:38:08;;;;;;;;;;;19.90;99.90;;;;;;5159526;27;19923;-76
2021/09/05 12:40:39;;;;;;;;;;;19.90;99.90;;;;;;5159383;27;20302;-76
2021/09/05 12:43:07;;;;;;;;;;;19.90;99.90;;;;;;5159244;27;19923;-76
2021/09/05 12:45:35;;;;;;;;;;;19.90;99.90;;;;;;5159065;27;19923;-76
2021/09/05 12:48:13;;;;;;;;;;;19.90;99.90;;;;;;5159142;27;19930;-76
2021/09/05 12:50:43;;;;;;;;;;;19.90;99.90;;;;;;5158823;27;19997;-76
2021/09/05 12:53:11;;;;;;;;;;;20.00;99.90;;;;;;5159000;27;20368;-76
2021/09/05 12:55:39;;;;;;;;;;;20.00;99.90;;;;;;5159136;27;19923;-76
2021/09/05 12:58:10;;;;;;;;;;;20.10;99.90;;;;;;5159235;27;19923;-77
2021/09/05 13:00:38;;;;;;;;;;;20.10;99.90;;;;;;5158802;27;19987;-76
2021/09/05 13:03:07;;;;;;;;;;;20.20;99.90;;;;;;5158802;27;19930;-76
2021/09/05 13:05:35;;;;;;;;;;;20.20;99.90;;;;;;5158706;27;19923;-77
2021/09/05 13:08:04;;;;;;;;;;;20.20;99.90;;;;;;5158174;27;19923;-77
2021/09/05 13:10:31;;;;;;;;;;;20.20;99.90;;;;;;5158867;27;19923;-76
2021/09/05 13:12:59;;;;;;;;;;;20.20;99.90;;;;;;5158654;27;20350;-77
2021/09/05 13:15:26;;;;;;;;;;;20.30;99.90;;;;;;5158658;27;19926;-77
2021/09/05 13:17:53;;;;;;;;;;;20.30;99.90;;;;;;5158695;27;19922;-77
2021/09/05 13:20:20;;;;;;;;;;;20.30;99.90;;;;;;5158806;27;20330;-76
2021/09/05 13:22:47;;;;;;;;;;;20.30;99.90;;;;;;5157325;27;19923;-76
2021/09/05 13:25:15;;;;;;;;;;;20.30;99.90;;;;;;5157829;27;19927;-75
2021/09/05 13:27:42;;;;;;;;;;;20.40;99.90;;;;;;5158047;27;19923;-80
2021/09/05 13:30:10;;;;;;;;;;;20.40;99.90;;;;;;5158553;27;20250;-79
2021/09/05 13:32:36;;;;;;;;;;;20.50;99.90;;;;;;5158464;27;19934;-83
2021/09/05 13:35:03;;;;;;;;;;;20.50;99.90;;;;;;5158271;27;19923;-79
2021/09/05 13:37:31;;;;;;;;;;;20.60;99.90;;;;;;5157975;27;19926;-85
2021/09/05 13:39:57;;;;;;;;;;;20.80;99.90;;;;;;5153573;27;19931;-78
2021/09/05 13:42:26;;;;;;;;;;;20.80;99.90;;;;;;5153362;27;19946;-79
2021/09/05 13:44:52;;;;;;;;;;;20.90;99.90;;;;;;5137137;27;19942;-73
2021/09/05 13:47:23;;;;;;;;;;;21.00;99.90;;;;;;5136819;27;19923;-76
2021/09/05 13:49:50;;;;;;;;;;;21.00;99.90;;;;;;5137693;27;20339;-82
2021/09/05 13:52:17;;;;;;;;;;;21.10;99.90;;;;;;5137079;27;19924;-76
2021/09/05 13:54:44;;;;;;;;;;;21.10;99.90;;;;;;5136905;27;20243;-83
2021/09/05 13:57:11;;;;;;;;;;;21.20;99.90;;;;;;5137202;27;20267;-73
2021/09/05 13:59:39;;;;;;;;;;;21.30;99.90;;;;;;5137422;27;20220;-72
2021/09/05 14:02:07;;;;;;;;;;;21.30;99.90;;;;;;5136938;27;19945;-73
2021/09/05 14:04:34;;;;;;;;;;;21.20;99.90;;;;;;5136980;27;19934;-83
2021/09/05 14:07:01;;;;;;;;;;;21.20;99.90;;;;;;5137962;27;19923;-82
2021/09/05 14:09:28;;;;;;;;;;;21.10;99.90;;;;;;5157415;27;20022;-84
2021/09/05 14:11:54;;;;;;;;;;;21.10;99.90;;;;;;5157290;27;19922;-85
2021/09/05 14:14:21;;;;;;;;;;;21.10;99.90;;;;;;5157663;27;20010;-80
2021/09/05 14:16:50;;;;;;;;;;;21.10;99.90;;;;;;5157335;27;20370;-82
2021/09/05 14:19:16;;;;;;;;;;;21.10;99.90;;;;;;5156983;27;19930;-84
2021/09/05 14:21:43;;;;;;;;;;;21.10;99.90;;;;;;5156990;27;19927;-82